Time;durP1;ratioP1;P1;durP2;ratioP2;P2;SDS_P1;SDS_P2;PMS_P1;PMS_P2;Temp;Humidity;BMP_temperature;BMP_pressure;BME280_temperature;BME280_humidity;BME280_pressure;Samples;Min_cycle;Max_cycle;Signal;HPM_P1;HPM_P2
2023/03/05 00:01:27;;;;;;;11.43;2.08;;;3.60;99.90;;;;;;7368373;19;20018;-62
2023/03/05 00:03:54;;;;;;;8.93;2.45;;;3.60;99.90;;;;;;7369788;19;20018;-62
2023/03/05 00:06:23;;;;;;;12.75;2.42;;;3.60;99.90;;;;;;7370360;19;20014;-70
2023/03/05 00:08:52;;;;;;;12.55;2.70;;;3.70;99.90;;;;;;7365854;19;20034;-70
2023/03/05 00:11:20;;;;;;;10.70;2.47;;;3.60;99.90;;;;;;7368983;19;20024;-70
2023/03/05 00:13:47;;;;;;;12.15;2.40;;;3.60;99.90;;;;;;7370036;19;21082;-62
2023/03/05 00:16:16;;;;;;;10.60;2.15;;;3.60;99.90;;;;;;7370884;19;20025;-62
2023/03/05 00:18:43;;;;;;;9.20;2.55;;;3.70;99.90;;;;;;7368112;19;20478;-62
2023/03/05 00:21:23;;;;;;;10.57;2.50;;;3.60;99.90;;;;;;7368233;19;20374;-61
2023/03/05 00:23:51;;;;;;;9.55;2.50;;;3.70;99.90;;;;;;7363933;19;20390;-62
2023/03/05 00:26:24;;;;;;;8.25;2.28;;;3.70;99.90;;;;;;7369897;19;20037;-70
2023/03/05 00:28:51;;;;;;;8.23;2.58;;;3.70;99.90;;;;;;7367523;19;20019;-61
2023/03/05 00:31:20;;;;;;;9.25;2.17;;;3.70;99.90;;;;;;7375639;19;20019;-62
2023/03/05 00:33:52;;;;;;;6.45;2.10;;;3.70;99.90;;;;;;7369897;19;20726;-61
2023/03/05 00:36:19;;;;;;;7.05;2.20;;;3.70;99.90;;;;;;7375325;19;20039;-61
2023/03/05 00:38:48;;;;;;;4.97;1.90;;;3.70;99.90;;;;;;7373512;19;20015;-62
2023/03/05 00:41:14;;;;;;;8.85;2.75;;;3.70;99.90;;;;;;7376786;19;20023;-62
2023/03/05 00:43:40;;;;;;;9.25;2.28;;;3.80;99.90;;;;;;7373396;19;20022;-70
2023/03/05 00:46:06;;;;;;;9.57;2.15;;;3.80;99.90;;;;;;7376090;19;20019;-69
2023/03/05 00:48:33;;;;;;;5.72;2.22;;;3.80;99.90;;;;;;7378510;19;20030;-69
2023/03/05 00:51:08;;;;;;;6.10;1.75;;;3.70;99.90;;;;;;7373036;19;20030;-69
2023/03/05 00:53:35;;;;;;;9.60;1.80;;;3.70;99.90;;;;;;7378868;19;20054;-70
2023/03/05 00:56:02;;;;;;;7.65;1.58;;;3.70;99.90;;;;;;7374711;19;20022;-61
2023/03/05 00:58:28;;;;;;;5.03;2.00;;;3.70;99.90;;;;;;7380112;19;20038;-62
2023/03/05 01:00:59;;;;;;;6.28;1.60;;;3.60;99.90;;;;;;7379898;19;20022;-62
2023/03/05 01:03:27;;;;;;;8.02;2.00;;;3.60;99.90;;;;;;7375620;19;20022;-69
2023/03/05 01:05:58;;;;;;;9.00;2.00;;;3.60;99.90;;;;;;7379067;19;20087;-63
2023/03/05 01:08:25;;;;;;;8.38;2.00;;;3.50;99.90;;;;;;7379351;19;20102;-62
2023/03/05 01:10:52;;;;;;;6.95;2.10;;;3.50;99.90;;;;;;7377822;19;20015;-62
2023/03/05 01:13:19;;;;;;;12.45;2.33;;;3.50;99.90;;;;;;7377735;19;20023;-61
2023/03/05 01:15:47;;;;;;;8.40;2.33;;;3.50;99.90;;;;;;7379535;19;20987;-70
2023/03/05 01:18:18;;;;;;;7.17;1.50;;;3.50;99.90;;;;;;7376903;19;20051;-61
2023/03/05 01:20:44;;;;;;;7.65;1.80;;;3.50;99.90;;;;;;7377680;19;20046;-61
2023/03/05 01:23:15;;;;;;;6.82;1.95;;;3.50;99.90;;;;;;7374611;19;20049;-62
2023/03/05 01:25:42;;;;;;;7.70;2.33;;;3.40;99.90;;;;;;7379264;19;20042;-70
2023/03/05 01:28:08;;;;;;;8.15;2.00;;;3.40;99.90;;;;;;7375597;19;20509;-62
2023/03/05 01:30:35;;;;;;;8.57;1.90;;;3.40;99.90;;;;;;7378508;19;20019;-61
2023/03/05 01:33:02;;;;;;;9.30;2.08;;;3.40;99.90;;;;;;7376475;19;20022;-62
2023/03/05 01:35:30;;;;;;;6.60;1.90;;;3.40;99.90;;;;;;7375707;19;20593;-62
2023/03/05 01:37:56;;;;;;;7.05;1.98;;;3.40;99.90;;;;;;7376527;19;20030;-61
2023/03/05 01:40:27;;;;;;;7.63;2.28;;;3.40;99.90;;;;;;7378957;19;20106;-61
2023/03/05 01:43:08;;;;;;;8.15;2.05;;;3.30;99.90;;;;;;7371381;19;20077;-62
2023/03/05 01:45:34;;;;;;;6.50;1.95;;;3.30;99.90;;;;;;7372173;19;20018;-61
2023/03/05 01:48:00;;;;;;;7.30;2.08;;;3.30;99.90;;;;;;7376325;19;20018;-61
2023/03/05 01:50:28;;;;;;;6.47;2.00;;;3.30;99.90;;;;;;7376534;19;20018;-61
2023/03/05 01:53:01;;;;;;;7.18;2.13;;;3.20;99.90;;;;;;7377431;19;20018;-62
2023/03/05 01:55:29;;;;;;;6.40;2.00;;;3.20;99.90;;;;;;7377455;19;20010;-61
2023/03/05 01:58:16;;;;;;;4.90;1.77;;;3.20;99.90;;;;;;7376406;19;20023;-62
2023/03/05 02:00:47;;;;;;;8.93;2.10;;;3.20;99.90;;;;;;7377911;19;20017;-61
2023/03/05 02:03:14;;;;;;;9.85;2.42;;;3.10;99.90;;;;;;7374862;19;20010;-61
2023/03/05 02:05:47;;;;;;;9.13;2.70;;;3.10;99.90;;;;;;7376664;19;20019;-62
2023/03/05 02:08:19;;;;;;;6.40;2.25;;;3.00;99.90;;;;;;7373912;19;20670;-61
2023/03/05 02:10:52;;;;;;;8.05;2.22;;;3.00;99.90;;;;;;7377038;19;20025;-61
2023/03/05 02:13:34;;;;;;;10.88;2.60;;;3.00;99.90;;;;;;7375529;19;20018;-62
2023/03/05 02:16:01;;;;;;;8.60;2.30;;;2.90;99.90;;;;;;7370666;19;20019;-61
2023/03/05 02:18:29;;;;;;;10.35;3.10;;;3.00;99.90;;;;;;7376854;19;20015;-61
2023/03/05 02:20:56;;;;;;;5.40;2.17;;;3.00;99.90;;;;;;7373995;19;20026;-70
2023/03/05 02:23:35;;;;;;;8.48;2.10;;;3.00;99.90;;;;;;7375453;19;20018;-69
2023/03/05 02:26:09;;;;;;;10.43;2.35;;;3.00;99.90;;;;;;7374191;19;20035;-69
2023/03/05 02:28:45;;;;;;;11.93;2.55;;;3.00;99.90;;;;;;7372281;19;20661;-69
2023/03/05 02:31:19;;;;;;;8.73;2.85;;;3.00;99.90;;;;;;7367545;19;20022;-69
2023/03/05 02:33:47;;;;;;;10.05;2.65;;;3.00;99.90;;;;;;7365533;19;20122;-69
2023/03/05 02:36:15;;;;;;;7.85;2.70;;;2.90;99.90;;;;;;7369605;19;20020;-69
2023/03/05 02:38:43;;;;;;;7.47;2.85;;;2.90;99.90;;;;;;7373155;19;20592;-69
2023/03/05 02:41:10;;;;;;;8.00;2.58;;;2.90;99.90;;;;;;7372607;19;20036;-69
2023/03/05 02:43:37;;;;;;;10.57;3.10;;;2.90;99.90;;;;;;7370616;19;20029;-69
2023/03/05 02:46:04;;;;;;;8.90;2.35;;;2.90;99.90;;;;;;7368641;19;20581;-70
2023/03/05 02:48:31;;;;;;;7.80;2.58;;;2.90;99.90;;;;;;7373650;19;20103;-61
2023/03/05 02:50:58;;;;;;;7.95;2.72;;;2.90;99.90;;;;;;7373862;19;20015;-61
2023/03/05 02:53:25;;;;;;;7.70;2.53;;;2.90;99.90;;;;;;7374337;19;20025;-61
2023/03/05 02:55:52;;;;;;;10.77;2.50;;;2.90;99.90;;;;;;7370454;19;20600;-61
2023/03/05 02:58:20;;;;;;;7.30;3.03;;;2.90;99.90;;;;;;7374912;19;20022;-61
2023/03/05 03:00:52;;;;;;;7.20;2.58;;;2.90;99.90;;;;;;7372698;19;20988;-61
2023/03/05 03:03:18;;;;;;;7.07;3.33;;;2.80;99.90;;;;;;7368635;19;20025;-69
2023/03/05 03:05:44;;;;;;;8.48;2.83;;;2.80;99.90;;;;;;7370503;19;20022;-61
2023/03/05 03:08:12;;;;;;;10.88;2.70;;;2.80;99.90;;;;;;7373665;19;20026;-69
2023/03/05 03:10:38;;;;;;;8.75;2.88;;;2.80;99.90;;;;;;7373838;19;20085;-69
2023/03/05 03:13:06;;;;;;;11.25;2.60;;;2.70;99.90;;;;;;7372757;19;20018;-69
2023/03/05 03:15:33;;;;;;;6.35;2.70;;;2.70;99.90;;;;;;7374281;19;20042;-61
2023/03/05 03:17:59;;;;;;;9.38;2.90;;;2.70;99.90;;;;;;7370619;19;20019;-69
2023/03/05 03:20:26;;;;;;;6.90;2.42;;;2.80;99.90;;;;;;7373933;19;20029;-61
2023/03/05 03:22:55;;;;;;;6.32;2.00;;;2.80;99.90;;;;;;7370810;19;20039;-62
2023/03/05 03:25:22;;;;;;;10.48;2.67;;;2.80;99.90;;;;;;7373620;19;20541;-69
2023/03/05 03:27:51;;;;;;;7.57;2.30;;;2.90;99.90;;;;;;7368608;19;20014;-61
2023/03/05 03:30:18;;;;;;;8.02;2.90;;;2.80;99.90;;;;;;7372584;19;20561;-69
2023/03/05 03:32:44;;;;;;;9.05;2.42;;;2.90;99.90;;;;;;7368837;19;20857;-69
2023/03/05 03:35:11;;;;;;;10.48;2.75;;;2.90;99.90;;;;;;7370864;19;20014;-69
2023/03/05 03:37:38;;;;;;;11.63;2.75;;;2.90;99.90;;;;;;7371468;19;20113;-69
2023/03/05 03:40:05;;;;;;;8.25;2.38;;;3.00;99.90;;;;;;7367709;19;20018;-61
2023/03/05 03:42:38;;;;;;;5.07;2.30;;;3.00;99.90;;;;;;7371585;19;20029;-69
2023/03/05 03:45:06;;;;;;;6.90;2.10;;;3.00;99.90;;;;;;7366674;19;20379;-69
2023/03/05 03:47:32;;;;;;;8.07;2.35;;;3.00;99.90;;;;;;7373935;19;20092;-69
2023/03/05 03:49:58;;;;;;;7.28;1.90;;;3.00;99.90;;;;;;7363871;19;20022;-69
2023/03/05 03:52:25;;;;;;;6.32;2.22;;;3.00;99.90;;;;;;7372191;19;20022;-69
2023/03/05 03:54:54;;;;;;;9.30;2.28;;;3.00;99.90;;;;;;7371216;19;20103;-69
2023/03/05 03:57:20;;;;;;;8.63;2.17;;;3.00;99.90;;;;;;7370649;19;20041;-69
2023/03/05 03:59:49;;;;;;;6.20;1.65;;;3.00;99.90;;;;;;7371569;19;20710;-61
2023/03/05 04:02:15;;;;;;;6.25;1.55;;;3.00;99.90;;;;;;7367395;19;20757;-61
2023/03/05 04:04:41;;;;;;;7.93;2.08;;;3.00;99.90;;;;;;7371651;19;20014;-61
2023/03/05 04:07:08;;;;;;;10.43;1.98;;;3.00;99.90;;;;;;7369448;19;20060;-61
2023/03/05 04:09:34;;;;;;;5.05;1.70;;;3.00;99.90;;;;;;7373829;19;20106;-69
2023/03/05 04:12:00;;;;;;;9.85;1.98;;;3.00;99.90;;;;;;7372085;19;20022;-69
2023/03/05 04:14:36;;;;;;;3.97;1.40;;;3.00;99.90;;;;;;7374444;19;20019;-69
2023/03/05 04:17:02;;;;;;;7.30;1.73;;;3.10;99.90;;;;;;7371704;19;20015;-61
2023/03/05 04:19:29;;;;;;;6.40;1.92;;;3.00;99.90;;;;;;7371256;19;20022;-61
2023/03/05 04:21:57;;;;;;;7.70;1.65;;;3.00;99.90;;;;;;7370518;19;20033;-61
2023/03/05 04:24:23;;;;;;;6.38;1.70;;;3.00;99.90;;;;;;7373025;19;20011;-61
2023/03/05 04:26:49;;;;;;;3.55;1.63;;;3.00;99.90;;;;;;7373582;19;21066;-61
2023/03/05 04:29:17;;;;;;;7.22;1.70;;;3.00;99.90;;;;;;7373367;19;20053;-61
2023/03/05 04:31:44;;;;;;;9.52;1.88;;;3.00;99.90;;;;;;7371900;19;20047;-61
2023/03/05 04:34:10;;;;;;;5.80;1.73;;;3.00;99.90;;;;;;7372337;19;20023;-61
2023/03/05 04:36:36;;;;;;;4.43;1.60;;;3.00;99.90;;;;;;7369495;19;20074;-61
2023/03/05 04:39:03;;;;;;;6.43;1.33;;;3.00;99.90;;;;;;7374554;19;20022;-61
2023/03/05 04:41:30;;;;;;;6.97;1.45;;;3.00;99.90;;;;;;7371833;19;20035;-62
2023/03/05 04:43:56;;;;;;;4.25;1.08;;;3.00;99.90;;;;;;7372140;19;20018;-68
2023/03/05 04:46:23;;;;;;;6.90;1.25;;;2.90;99.90;;;;;;7370723;19;20593;-69
2023/03/05 04:48:49;;;;;;;5.25;1.00;;;3.00;99.90;;;;;;7372200;19;20513;-69
2023/03/05 04:51:23;;;;;;;4.70;1.40;;;2.90;99.90;;;;;;7372449;19;20029;-69
2023/03/05 04:53:50;;;;;;;5.95;1.17;;;2.90;99.90;;;;;;7370946;19;20019;-61
2023/03/05 04:56:16;;;;;;;3.60;1.48;;;2.90;99.90;;;;;;7368241;19;20025;-62
2023/03/05 04:58:47;;;;;;;3.47;1.20;;;2.90;99.90;;;;;;7370101;19;20037;-61
2023/03/05 05:01:13;;;;;;;5.30;1.42;;;2.90;99.90;;;;;;7370729;19;20908;-61
2023/03/05 05:03:40;;;;;;;8.07;1.70;;;2.90;99.90;;;;;;7369315;19;20466;-69
2023/03/05 05:06:06;;;;;;;7.82;1.75;;;2.90;99.90;;;;;;7367776;19;20014;-68
2023/03/05 05:08:32;;;;;;;4.43;1.83;;;2.90;99.90;;;;;;7370427;19;20029;-69
2023/03/05 05:11:02;;;;;;;4.00;1.33;;;2.90;99.90;;;;;;7371661;19;20086;-69
2023/03/05 05:13:29;;;;;;;5.10;1.40;;;2.90;99.90;;;;;;7372477;19;20025;-68
2023/03/05 05:16:07;;;;;;;4.93;1.55;;;2.90;99.90;;;;;;7369662;19;20064;-68
2023/03/05 05:18:34;;;;;;;6.63;1.45;;;2.90;99.90;;;;;;7372757;19;20029;-68
2023/03/05 05:21:01;;;;;;;7.13;1.95;;;2.90;99.90;;;;;;7377455;19;20478;-68
2023/03/05 05:23:27;;;;;;;4.15;1.70;;;2.90;99.90;;;;;;7377793;19;20469;-68
2023/03/05 05:26:01;;;;;;;3.67;1.63;;;2.90;99.90;;;;;;7373239;19;20022;-68
2023/03/05 05:28:29;;;;;;;2.83;1.20;;;2.90;99.90;;;;;;7373559;19;20014;-68
2023/03/05 05:30:56;;;;;;;5.45;1.52;;;2.90;99.90;;;;;;7377755;19;20019;-68
2023/03/05 05:33:23;;;;;;;4.75;1.30;;;2.90;99.90;;;;;;7377403;19;20022;-61
2023/03/05 05:35:49;;;;;;;7.00;1.60;;;2.90;99.90;;;;;;7375001;19;20038;-68
2023/03/05 05:38:16;;;;;;;2.70;1.00;;;2.90;99.90;;;;;;7377845;19;20899;-69
2023/03/05 05:40:42;;;;;;;4.40;1.55;;;2.90;99.90;;;;;;7375473;19;20490;-69
2023/03/05 05:43:09;;;;;;;5.47;1.50;;;2.90;99.90;;;;;;7375198;19;20022;-68
2023/03/05 05:45:39;;;;;;;4.90;1.30;;;2.90;99.90;;;;;;7375843;19;20018;-68
2023/03/05 05:48:05;;;;;;;5.88;1.60;;;2.90;99.90;;;;;;7376045;19;20046;-61
2023/03/05 05:50:32;;;;;;;8.52;1.95;;;2.90;99.90;;;;;;7379766;19;20026;-69
2023/03/05 05:52:59;;;;;;;5.80;1.48;;;2.90;99.90;;;;;;7377914;19;20529;-68
2023/03/05 05:55:25;;;;;;;3.97;1.20;;;2.90;99.90;;;;;;7375536;19;20021;-68
2023/03/05 05:57:52;;;;;;;6.13;1.48;;;2.90;99.90;;;;;;7376630;19;20030;-68
2023/03/05 06:00:19;;;;;;;2.65;1.48;;;2.90;99.90;;;;;;7375393;19;20019;-61
2023/03/05 06:02:45;;;;;;;2.63;1.38;;;2.90;99.90;;;;;;7375241;19;20018;-68
2023/03/05 06:05:13;;;;;;;3.85;1.20;;;2.90;99.90;;;;;;7373194;19;20662;-68
2023/03/05 06:07:40;;;;;;;4.18;1.30;;;2.80;99.90;;;;;;7375060;19;20018;-68
2023/03/05 06:10:08;;;;;;;5.00;1.33;;;2.80;99.90;;;;;;7375735;19;20026;-68
2023/03/05 06:12:34;;;;;;;6.55;1.95;;;2.80;99.90;;;;;;7374859;19;20027;-68
2023/03/05 06:15:00;;;;;;;4.75;1.48;;;2.80;99.90;;;;;;7378368;19;20018;-68
2023/03/05 06:17:28;;;;;;;4.63;1.45;;;2.70;99.90;;;;;;7376108;19;20047;-69
2023/03/05 06:19:54;;;;;;;5.47;1.95;;;2.80;99.90;;;;;;7371574;19;20690;-68
2023/03/05 06:22:21;;;;;;;7.60;1.60;;;2.80;99.90;;;;;;7370949;19;20776;-68
2023/03/05 06:24:47;;;;;;;7.03;1.45;;;2.80;99.90;;;;;;7371118;19;20028;-68
2023/03/05 06:27:14;;;;;;;6.10;1.60;;;2.80;99.90;;;;;;7370596;19;20054;-68
2023/03/05 06:29:40;;;;;;;4.90;1.70;;;2.80;99.90;;;;;;7374125;19;20006;-68
2023/03/05 06:32:06;;;;;;;7.35;1.70;;;2.90;99.90;;;;;;7376651;19;20022;-61
2023/03/05 06:34:39;;;;;;;5.18;1.95;;;2.90;99.90;;;;;;7377032;19;20370;-68
2023/03/05 06:37:06;;;;;;;4.25;1.65;;;2.90;99.90;;;;;;7376904;19;20018;-68
2023/03/05 06:39:33;;;;;;;7.18;1.95;;;2.90;99.90;;;;;;7372697;19;20511;-68
2023/03/05 06:41:59;;;;;;;4.65;1.55;;;2.90;99.90;;;;;;7375892;19;20494;-68
2023/03/05 06:44:26;;;;;;;8.00;1.73;;;3.00;99.90;;;;;;7371694;19;20025;-68
2023/03/05 06:46:53;;;;;;;5.85;1.92;;;3.00;99.90;;;;;;7374886;19;20610;-68
2023/03/05 06:49:19;;;;;;;5.25;1.55;;;3.00;99.90;;;;;;7376960;19;20014;-61
2023/03/05 06:51:51;;;;;;;;;;;3.00;99.90;;;;;;7374107;19;20021;-61
2023/03/05 06:54:17;;;;;;;6.82;2.15;;;3.00;99.90;;;;;;7371608;19;19938;-68
2023/03/05 06:56:45;;;;;;;7.38;1.75;;;3.00;99.90;;;;;;7375515;19;20427;-69
2023/03/05 06:59:14;;;;;;;6.88;1.63;;;3.00;99.90;;;;;;7372155;19;20034;-68
2023/03/05 07:01:40;;;;;;;7.80;1.83;;;3.00;99.90;;;;;;7369940;19;20037;-67
2023/03/05 07:04:06;;;;;;;9.63;2.83;;;3.00;99.90;;;;;;7374244;19;20025;-67
2023/03/05 07:06:35;;;;;;;5.63;1.85;;;3.00;99.90;;;;;;7373242;19;20592;-68
2023/03/05 07:09:03;;;;;;;7.15;1.83;;;3.00;99.90;;;;;;7374575;19;20019;-61
2023/03/05 07:11:30;;;;;;;8.18;1.73;;;3.10;99.90;;;;;;7373782;19;20024;-61
2023/03/05 07:13:57;;;;;;;6.20;1.58;;;3.00;99.90;;;;;;7376097;19;20022;-67
2023/03/05 07:16:26;;;;;;;8.63;1.90;;;3.10;99.90;;;;;;7376185;19;20033;-67
2023/03/05 07:18:53;;;;;;;7.20;2.08;;;3.10;99.90;;;;;;7374599;19;20031;-61
2023/03/05 07:21:22;;;;;;;7.50;1.60;;;3.10;99.90;;;;;;7372097;19;20014;-68
2023/03/05 07:23:49;;;;;;;5.90;1.63;;;3.10;99.90;;;;;;7365917;19;20078;-67
2023/03/05 07:26:16;;;;;;;7.07;1.60;;;3.20;99.90;;;;;;7365970;19;20487;-60
2023/03/05 07:28:42;;;;;;;6.63;1.67;;;3.20;99.90;;;;;;7366915;19;20030;-61
2023/03/05 07:31:15;;;;;;;4.68;1.40;;;3.20;99.90;;;;;;7364224;19;20061;-61
2023/03/05 07:33:41;;;;;;;7.80;1.70;;;3.40;99.90;;;;;;7367143;19;20030;-67
2023/03/05 07:36:09;;;;;;;5.80;1.08;;;3.40;99.90;;;;;;7365514;19;20035;-67
2023/03/05 07:38:36;;;;;;;7.93;1.67;;;3.50;99.90;;;;;;7368341;19;20038;-61
2023/03/05 07:41:07;;;;;;;2.75;1.30;;;3.50;99.90;;;;;;7363107;19;20023;-61
2023/03/05 07:43:33;;;;;;;5.75;1.70;;;3.60;99.90;;;;;;7366596;19;20025;-61
2023/03/05 07:46:07;;;;;;;5.32;2.17;;;3.60;99.90;;;;;;7366704;19;20019;-61
2023/03/05 07:48:34;;;;;;;6.75;1.70;;;3.70;99.90;;;;;;7365960;19;20077;-61
2023/03/05 07:51:14;;;;;;;5.43;1.75;;;4.00;99.90;;;;;;7365393;19;20027;-68
2023/03/05 07:53:43;;;;;;;4.43;1.33;;;3.90;99.90;;;;;;7368602;19;20023;-61
2023/03/05 07:56:10;;;;;;;8.35;1.48;;;4.00;99.90;;;;;;7365442;19;20101;-61
2023/03/05 07:58:36;;;;;;;4.68;1.60;;;4.10;99.90;;;;;;7366006;19;20359;-67
2023/03/05 08:01:03;;;;;;;5.97;1.65;;;4.20;99.90;;;;;;7365490;19;20021;-61
2023/03/05 08:03:36;;;;;;;6.05;1.65;;;4.10;99.90;;;;;;7362720;19;20035;-61
2023/03/05 08:06:05;;;;;;;5.93;1.83;;;4.30;99.90;;;;;;7367944;19;20022;-61
2023/03/05 08:08:51;;;;;;;9.50;2.58;;;4.50;99.90;;;;;;7367292;19;20018;-61
2023/03/05 08:11:18;;;;;;;4.20;1.50;;;4.70;99.90;;;;;;7364770;19;20022;-67
2023/03/05 08:13:45;;;;;;;8.10;2.50;;;4.70;99.90;;;;;;7366593;19;20555;-67
2023/03/05 08:16:18;;;;;;;6.03;1.90;;;4.80;99.90;;;;;;7365604;19;20030;-67
2023/03/05 08:18:45;;;;;;;9.18;2.00;;;5.20;99.90;;;;;;7365932;19;20029;-68
2023/03/05 08:21:20;;;;;;;4.82;1.60;;;5.20;99.90;;;;;;7365919;19;20018;-68
2023/03/05 08:23:46;;;;;;;7.93;1.90;;;5.30;99.90;;;;;;7361853;19;20101;-68
2023/03/05 08:26:15;;;;;;;4.20;1.63;;;5.40;99.90;;;;;;7363533;19;20022;-62
2023/03/05 08:28:42;;;;;;;7.13;1.58;;;5.50;99.90;;;;;;7362953;19;21331;-67
2023/03/05 08:31:10;;;;;;;6.55;1.58;;;5.50;99.90;;;;;;7365498;19;20044;-68
2023/03/05 08:33:37;;;;;;;7.18;1.40;;;5.70;99.90;;;;;;7359602;19;20019;-68
2023/03/05 08:36:08;;;;;;;3.80;1.23;;;5.80;99.90;;;;;;7367710;19;20034;-68
2023/03/05 08:38:35;;;;;;;7.65;2.10;;;5.90;99.90;;;;;;7374115;19;20011;-68
2023/03/05 08:41:02;;;;;;;4.55;1.42;;;6.50;99.90;;;;;;7376395;19;20048;-62
2023/03/05 08:43:36;;;;;;;5.53;1.42;;;6.70;99.90;;;;;;7370942;19;20491;-62
2023/03/05 08:46:02;;;;;;;7.57;1.80;;;7.00;99.90;;;;;;7372477;19;20394;-62
2023/03/05 08:48:30;;;;;;;9.02;1.38;;;7.10;99.90;;;;;;7372479;19;20018;-62
2023/03/05 08:51:03;;;;;;;9.98;1.90;;;7.10;99.90;;;;;;7377056;19;20741;-62
2023/03/05 08:53:30;;;;;;;7.97;1.95;;;7.10;99.90;;;;;;7378492;19;20022;-62
2023/03/05 08:55:58;;;;;;;11.80;2.03;;;7.50;99.90;;;;;;7383080;19;20034;-62
2023/03/05 08:58:24;;;;;;;4.10;1.42;;;7.60;99.90;;;;;;7381703;19;20026;-62
2023/03/05 09:00:51;;;;;;;7.10;1.60;;;8.00;99.90;;;;;;7381896;19;20580;-62
2023/03/05 09:03:18;;;;;;;9.25;1.70;;;8.50;99.90;;;;;;7378409;19;20023;-62
2023/03/05 09:05:46;;;;;;;5.32;1.50;;;8.20;99.90;;;;;;7379465;19;20029;-63
2023/03/05 09:08:13;;;;;;;5.97;1.67;;;8.10;99.90;;;;;;7377780;19;20042;-62
2023/03/05 09:10:44;;;;;;;10.18;1.77;;;8.10;99.90;;;;;;7379636;19;20014;-62
2023/03/05 09:13:11;;;;;;;6.67;1.40;;;8.10;99.90;;;;;;7378657;19;20033;-68
2023/03/05 09:15:38;;;;;;;8.32;1.58;;;8.50;99.90;;;;;;7383811;19;20091;-68
2023/03/05 09:18:05;;;;;;;7.95;1.40;;;8.60;99.90;;;;;;7380836;19;20113;-68
2023/03/05 09:20:32;;;;;;;6.30;1.48;;;9.00;99.90;;;;;;7380565;19;20478;-68
2023/03/05 09:22:59;;;;;;;7.07;1.40;;;9.10;99.90;;;;;;7378505;19;20014;-68
2023/03/05 09:25:26;;;;;;;7.45;1.20;;;9.70;99.90;;;;;;7371844;19;20482;-66
2023/03/05 09:27:52;;;;;;;7.72;1.50;;;9.90;99.90;;;;;;7372287;19;20041;-66
2023/03/05 09:30:19;;;;;;;8.90;2.10;;;9.60;99.90;;;;;;7370540;19;20580;-66
2023/03/05 09:32:45;;;;;;;5.40;1.00;;;9.70;99.90;;;;;;7370761;19;20019;-68
2023/03/05 09:35:12;;;;;;;3.63;1.13;;;9.60;99.90;;;;;;7372712;19;20066;-69
2023/03/05 09:37:38;;;;;;;4.78;1.48;;;9.60;99.90;;;;;;7368016;19;20745;-68
2023/03/05 09:40:15;;;;;;;8.65;1.52;;;10.00;99.90;;;;;;7369585;19;20031;-63
2023/03/05 09:43:23;;;;;;;7.80;2.00;;;10.50;99.90;;;;;;7370849;19;20021;-63
2023/03/05 09:46:14;;;;;;;7.60;2.38;;;11.30;99.90;;;;;;7365732;19;20619;-64
2023/03/05 09:48:52;;;;;;;;;;;11.50;99.90;;;;;;7371099;19;20481;-63
2023/03/05 09:51:28;;;;;;;7.05;1.10;;;11.80;99.90;;;;;;7370309;19;19923;-64
2023/03/05 09:54:00;;;;;;;4.43;0.88;;;11.50;99.90;;;;;;7368752;19;20026;-69
2023/03/05 09:56:33;;;;;;;6.13;1.23;;;11.20;99.90;;;;;;7369462;19;20097;-71
2023/03/05 09:59:23;;;;;;;7.55;1.50;;;11.90;99.90;;;;;;7381344;19;20109;-69
2023/03/05 10:01:51;;;;;;;5.32;1.55;;;11.50;99.90;;;;;;7378274;19;20637;-69
2023/03/05 10:04:37;;;;;;;5.80;1.38;;;11.70;99.90;;;;;;7373394;19;20035;-69
2023/03/05 10:07:14;;;;;;;5.28;0.95;;;11.40;98.60;;;;;;7378796;19;20018;-69
2023/03/05 10:10:02;;;;;;;5.18;1.08;;;11.60;99.90;;;;;;7377541;19;20042;-69
2023/03/05 10:12:42;;;;;;;7.43;1.10;;;10.60;99.90;;;;;;7379633;19;20025;-70
2023/03/05 10:15:28;;;;;;;5.40;1.00;;;11.00;99.90;;;;;;7375778;19;20014;-67
2023/03/05 10:18:00;;;;;;;5.40;1.10;;;10.40;99.90;;;;;;7379958;19;20108;-69
2023/03/05 10:20:45;;;;;;;6.63;1.17;;;11.20;99.90;;;;;;7377296;19;20031;-69
2023/03/05 10:23:28;;;;;;;6.78;1.40;;;11.20;99.90;;;;;;7376304;19;20046;-64
2023/03/05 10:26:00;;;;;;;7.65;1.02;;;10.30;99.90;;;;;;7375603;19;20014;-63
2023/03/05 10:29:03;;;;;;;5.50;1.00;;;10.00;99.90;;;;;;7373458;19;20045;-63
2023/03/05 10:31:35;;;;;;;;;;;9.80;99.90;;;;;;7373588;19;20015;-63
2023/03/05 10:34:05;;;;;;;4.80;1.17;;;10.10;99.90;;;;;;7372528;19;19927;-63
2023/03/05 10:36:49;;;;;;;8.82;1.15;;;9.80;99.90;;;;;;7372513;19;20034;-69
2023/03/05 10:39:16;;;;;;;8.40;1.92;;;9.50;99.90;;;;;;7376761;19;20030;-69
2023/03/05 10:41:54;;;;;;;4.43;1.48;;;9.40;99.90;;;;;;7378577;19;20605;-69
2023/03/05 10:44:38;;;;;;;6.22;1.35;;;9.50;99.90;;;;;;7373149;19;20019;-69
2023/03/05 10:47:21;;;;;;;6.30;1.27;;;9.60;99.90;;;;;;7379611;19;20014;-69
2023/03/05 10:49:58;;;;;;;7.90;1.10;;;9.80;99.90;;;;;;7380679;19;20110;-69
2023/03/05 10:52:35;;;;;;;4.00;1.00;;;9.70;99.90;;;;;;7375855;19;20055;-69
2023/03/05 10:55:16;;;;;;;8.38;1.17;;;9.50;99.90;;;;;;7378348;19;20018;-69
2023/03/05 10:57:43;;;;;;;5.40;1.20;;;9.10;99.90;;;;;;7378679;19;20868;-64
2023/03/05 11:00:20;;;;;;;4.78;1.15;;;9.30;99.90;;;;;;7373217;19;20344;-69
2023/03/05 11:03:00;;;;;;;4.60;1.45;;;9.70;99.90;;;;;;7374009;19;20050;-69
2023/03/05 11:05:44;;;;;;;6.47;1.30;;;9.20;99.90;;;;;;7373643;19;20037;-69
2023/03/05 11:08:31;;;;;;;4.32;1.13;;;8.50;99.90;;;;;;7372736;19;20014;-69
2023/03/05 11:11:20;;;;;;;11.35;1.80;;;7.90;99.90;;;;;;7377558;19;20018;-64
2023/03/05 11:13:58;;;;;;;6.72;1.58;;;7.50;99.90;;;;;;7373272;19;20661;-64
2023/03/05 11:16:28;;;;;;;3.42;1.10;;;7.20;99.90;;;;;;7375376;19;20022;-63
2023/03/05 11:19:13;;;;;;;3.90;0.98;;;6.90;99.90;;;;;;7374856;19;20111;-69
2023/03/05 11:21:41;;;;;;;5.10;1.15;;;6.80;99.90;;;;;;7373115;19;20019;-69
2023/03/05 11:24:15;;;;;;;4.38;1.00;;;6.80;99.90;;;;;;7371057;19;20017;-69
2023/03/05 11:26:56;;;;;;;3.03;0.70;;;6.70;99.90;;;;;;7377800;19;20146;-69
2023/03/05 11:29:31;;;;;;;4.15;1.20;;;7.00;99.90;;;;;;7373123;19;20029;-69
2023/03/05 11:32:19;;;;;;;2.88;0.93;;;7.10;99.90;;;;;;7371963;19;20511;-69
2023/03/05 11:34:45;;;;;;;4.57;0.90;;;7.70;99.90;;;;;;7369465;19;20039;-69
2023/03/05 11:37:24;;;;;;;4.20;0.90;;;8.10;99.90;;;;;;7371444;19;20793;-63
2023/03/05 11:40:28;;;;;;;3.45;0.88;;;8.70;99.90;;;;;;7375018;19;20022;-63
2023/03/05 11:42:58;;;;;;;4.07;1.20;;;9.00;99.90;;;;;;7373531;19;20026;-64
2023/03/05 11:45:31;;;;;;;5.32;1.13;;;9.10;99.90;;;;;;7370667;19;20588;-64
2023/03/05 11:48:10;;;;;;;3.25;0.80;;;9.30;99.90;;;;;;7372477;19;20114;-64
2023/03/05 11:50:39;;;;;;;4.15;1.10;;;9.60;99.90;;;;;;7373321;19;20032;-64
2023/03/05 11:53:27;;;;;;;4.82;0.90;;;10.00;99.90;;;;;;7373659;19;20015;-64
2023/03/05 11:56:03;;;;;;;4.38;0.80;;;10.40;99.90;;;;;;7373657;19;20379;-64
2023/03/05 11:59:20;;;;;;;3.60;0.80;;;10.90;99.90;;;;;;7376664;19;20549;-64
2023/03/05 12:01:50;;;;;;;4.57;0.73;;;10.50;99.90;;;;;;7374305;19;20019;-64
2023/03/05 12:04:19;;;;;;;4.28;1.38;;;10.40;99.90;;;;;;7370983;19;20038;-64
2023/03/05 12:06:56;;;;;;;3.95;0.70;;;10.70;99.90;;;;;;7357713;19;20026;-64
2023/03/05 12:09:49;;;;;;;5.72;1.00;;;10.70;99.90;;;;;;7372580;19;20057;-65
2023/03/05 12:12:34;;;;;;;4.05;1.00;;;11.20;99.90;;;;;;7372499;19;20043;-65
2023/03/05 12:15:19;;;;;;;6.90;1.33;;;11.20;99.90;;;;;;7373268;19;20939;-64
2023/03/05 12:18:18;;;;;;;6.80;1.00;;;11.40;99.90;;;;;;7367865;19;20501;-65
2023/03/05 12:20:54;;;;;;;5.32;1.33;;;11.30;99.90;;;;;;7373294;19;20708;-64
2023/03/05 12:23:21;;;;;;;4.25;1.00;;;11.40;99.90;;;;;;7371605;19;20039;-64
2023/03/05 12:25:49;;;;;;;4.15;1.00;;;11.60;99.90;;;;;;7370471;19;20019;-64
2023/03/05 12:28:41;;;;;;;5.65;1.00;;;11.30;99.90;;;;;;7379388;19;20026;-64
2023/03/05 12:31:07;;;;;;;;;;;11.30;99.90;;;;;;7378832;19;20738;-69
2023/03/05 12:33:42;;;;;;;3.45;0.85;;;10.80;99.90;;;;;;7376971;19;19982;-69
2023/03/05 12:36:20;;;;;;;8.73;1.50;;;10.60;99.90;;;;;;7378817;19;20022;-69
2023/03/05 12:38:54;;;;;;;6.53;1.10;;;10.10;99.90;;;;;;7381440;19;20031;-63
2023/03/05 12:41:24;;;;;;;5.68;1.35;;;10.20;99.90;;;;;;7379916;19;20044;-63
2023/03/05 12:44:05;;;;;;;5.78;1.20;;;10.40;99.90;;;;;;7375172;19;20018;-63
2023/03/05 12:46:36;;;;;;;4.85;1.10;;;11.20;99.90;;;;;;7379833;19;20019;-64
2023/03/05 12:49:18;;;;;;;4.32;1.00;;;11.50;99.90;;;;;;7380545;19;20023;-64
2023/03/05 12:51:47;;;;;;;6.63;1.20;;;11.90;95.10;;;;;;7380236;19;20513;-63
2023/03/05 12:54:27;;;;;;;6.43;1.05;;;12.00;99.90;;;;;;7378509;19;20014;-64
2023/03/05 12:56:55;;;;;;;6.90;1.58;;;10.90;99.90;;;;;;7381706;19;20494;-63
2023/03/05 12:59:28;;;;;;;4.10;1.17;;;10.20;99.90;;;;;;7382247;19;20014;-64
2023/03/05 13:02:02;;;;;;;6.13;1.25;;;9.30;99.90;;;;;;7373192;19;20381;-63
2023/03/05 13:04:31;;;;;;;3.53;1.30;;;8.50;99.90;;;;;;7375579;19;20022;-63
2023/03/05 13:07:03;;;;;;;5.35;1.20;;;7.60;99.90;;;;;;7373917;19;20485;-63
2023/03/05 13:09:33;;;;;;;6.63;1.58;;;7.50;99.90;;;;;;7376466;19;20029;-64
2023/03/05 13:12:01;;;;;;;3.55;1.05;;;7.50;99.90;;;;;;7374779;19;20014;-63
2023/03/05 13:14:35;;;;;;;4.78;1.33;;;7.50;99.90;;;;;;7376703;19;20082;-63